createdAt,value
2019-05-17T00:02:17.611Z,40.33
2019-05-17T00:05:06.947Z,46.60
2019-05-17T00:07:53.404Z,44.07
2019-05-17T00:10:41.053Z,41.53
2019-05-17T00:13:29.392Z,48.10
2019-05-17T00:16:17.536Z,45.63
2019-05-17T00:19:07.480Z,42.23
2019-05-17T00:21:53.712Z,48.40
2019-05-17T00:24:41.955Z,45.10
2019-05-17T00:27:29.592Z,56.10
2019-05-17T00:30:17.799Z,48.67
2019-05-17T00:33:07.774Z,50.93
2019-05-17T00:35:53.288Z,51.47
2019-05-17T00:38:48.284Z,56.80
2019-05-17T00:41:29.099Z,57.40
2019-05-17T00:44:17.092Z,52.17
2019-05-17T00:47:06.575Z,62.33
2019-05-17T00:49:52.458Z,57.40
2019-05-17T00:52:39.998Z,56.57
2019-05-17T00:55:27.726Z,56.13
2019-05-17T00:58:17.216Z,51.87
2019-05-17T01:01:03.307Z,52.97
2019-05-17T01:03:50.980Z,49.93
2019-05-17T01:06:38.443Z,51.80
2019-05-17T01:09:27.336Z,44.73
2019-05-17T01:12:16.321Z,52.87
2019-05-17T01:15:02.472Z,50.83
2019-05-17T01:17:50.116Z,45.27
2019-05-17T01:20:37.528Z,47.50
2019-05-17T01:23:27.179Z,46.40
2019-05-17T01:26:13.498Z,38.37
2019-05-17T01:29:01.417Z,44.83
2019-05-17T01:31:48.971Z,37.37
2019-05-17T01:34:37.588Z,44.33
2019-05-17T01:37:27.537Z,46.13
2019-05-17T01:40:13.080Z,39.10
2019-05-17T01:43:01.188Z,44.23
2019-05-17T01:45:48.774Z,39.97
2019-05-17T01:48:36.699Z,43.37
2019-05-17T01:51:26.354Z,41.07
2019-05-17T01:54:12.695Z,41.63
2019-05-17T01:57:00.373Z,39.60
2019-05-17T01:59:48.381Z,37.60
2019-05-17T02:02:38.058Z,38.80
2019-05-17T02:05:27.380Z,39.77
2019-05-17T02:08:14.008Z,40.00
2019-05-17T02:11:01.970Z,39.57
2019-05-17T02:13:49.750Z,37.67
2019-05-17T02:16:37.822Z,37.73
2019-05-17T02:19:26.558Z,34.37
2019-05-17T02:22:16.568Z,38.20
2019-05-17T02:25:01.753Z,35.60
2019-05-17T02:27:49.370Z,34.03
2019-05-17T02:30:37.118Z,36.83
2019-05-17T02:33:25.360Z,37.43
2019-05-17T02:36:14.293Z,38.50
2019-05-17T02:39:03.653Z,35.43
2019-05-17T02:41:49.330Z,36.63
2019-05-17T02:44:37.318Z,30.77
2019-05-17T02:47:24.926Z,28.90
2019-05-17T02:50:13.276Z,28.73
2019-05-17T02:53:04.168Z,24.10
2019-05-17T02:55:48.496Z,27.07
2019-05-17T02:58:36.177Z,29.77
2019-05-17T03:01:23.408Z,28.57
2019-05-17T03:04:13.027Z,26.80
2019-05-17T03:06:59.180Z,26.00
2019-05-17T03:09:47.113Z,25.43
2019-05-17T03:12:35.017Z,27.57
2019-05-17T03:15:23.499Z,25.57
2019-05-17T03:18:13.223Z,28.10
2019-05-17T03:20:58.721Z,30.17
2019-05-17T03:23:46.476Z,30.37
2019-05-17T03:26:34.091Z,28.27
2019-05-17T03:29:22.933Z,29.43
2019-05-17T03:32:16.728Z,29.50
2019-05-17T03:34:58.144Z,33.40
2019-05-17T03:37:45.840Z,33.60
2019-05-17T03:41:01.301Z,37.63
2019-05-17T03:43:22.659Z,32.87
2019-05-17T03:46:08.909Z,29.80
2019-05-17T03:48:56.553Z,32.67
2019-05-17T03:51:44.389Z,32.03
2019-05-17T03:54:32.703Z,36.13
2019-05-17T03:57:23.897Z,32.50
2019-05-17T04:00:08.552Z,31.93
2019-05-17T04:02:56.777Z,32.77
2019-05-17T04:05:44.324Z,32.90
2019-05-17T04:08:33.471Z,33.17
2019-05-17T04:11:31.005Z,32.67
2019-05-17T04:14:08.713Z,30.63
2019-05-17T04:16:57.345Z,31.87
2019-05-17T04:19:44.775Z,28.27
2019-05-17T04:22:33.162Z,29.07
2019-05-17T04:25:23.199Z,26.93
2019-05-17T04:28:08.476Z,26.10
2019-05-17T04:30:56.247Z,25.80
2019-05-17T04:33:44.008Z,22.33
2019-05-17T04:36:32.339Z,23.30
2019-05-17T04:39:22.405Z,25.23
2019-05-17T04:42:06.624Z,24.37
2019-05-17T04:44:54.418Z,21.33
2019-05-17T04:47:44.108Z,22.17
2019-05-17T04:50:29.720Z,20.23
2019-05-17T04:53:17.596Z,17.20
2019-05-17T04:56:05.116Z,20.10
2019-05-17T04:58:54.281Z,17.87
2019-05-17T05:01:43.597Z,26.80
2019-05-17T05:04:29.180Z,22.57
2019-05-17T05:07:16.724Z,17.33
2019-05-17T05:10:04.782Z,16.20
2019-05-17T05:12:52.757Z,15.20
2019-05-17T05:15:43.730Z,14.70
2019-05-17T05:18:28.135Z,15.87
2019-05-17T05:21:16.566Z,15.57
2019-05-17T05:24:04.687Z,16.33
2019-05-17T05:26:52.798Z,17.00
2019-05-17T05:29:41.650Z,24.80
2019-05-17T05:32:28.948Z,21.07
2019-05-17T05:35:16.592Z,16.70
2019-05-17T05:38:07.126Z,19.77
2019-05-17T05:40:52.870Z,18.87
2019-05-17T05:43:41.942Z,21.60
2019-05-17T05:46:28.754Z,17.53
2019-05-17T05:49:16.571Z,16.20
2019-05-17T05:52:04.156Z,20.73
2019-05-17T05:54:52.135Z,18.13
2019-05-17T05:57:42.024Z,16.27
2019-05-17T06:00:27.354Z,19.30
2019-05-17T06:03:15.196Z,19.17
2019-05-17T06:06:03.221Z,17.97
2019-05-17T06:08:52.089Z,19.37
2019-05-17T06:11:41.491Z,17.43
2019-05-17T06:14:27.158Z,19.93
2019-05-17T06:17:15.588Z,16.10
2019-05-17T06:20:03.187Z,17.67
2019-05-17T06:22:51.843Z,19.30
2019-05-17T06:25:39.140Z,17.40
2019-05-17T06:28:28.070Z,17.37
2019-05-17T06:31:15.770Z,18.90
2019-05-17T06:34:03.959Z,16.83
2019-05-17T06:36:52.776Z,18.60
2019-05-17T06:39:41.828Z,18.47
2019-05-17T06:42:39.325Z,18.23
2019-05-17T06:45:15.185Z,18.93
2019-05-17T06:48:02.797Z,17.03
2019-05-17T06:50:51.940Z,18.40
2019-05-17T06:53:37.800Z,18.10
2019-05-17T06:56:25.640Z,22.90
2019-05-17T06:59:15.908Z,19.30
2019-05-17T07:02:03.632Z,22.30
2019-05-17T07:04:51.944Z,20.37
2019-05-17T07:07:40.582Z,19.80
2019-05-17T07:10:30.178Z,21.90
2019-05-17T07:13:16.847Z,19.10
2019-05-17T07:16:04.858Z,18.37
2019-05-17T07:18:52.399Z,20.20
2019-05-17T07:21:40.591Z,21.40
2019-05-17T07:24:30.001Z,24.00
2019-05-17T07:27:16.700Z,24.07
2019-05-17T07:30:05.346Z,22.57
2019-05-17T07:32:53.207Z,24.57
2019-05-17T07:35:41.064Z,22.40
2019-05-17T07:38:30.207Z,22.93
2019-05-17T07:41:17.118Z,25.47
2019-05-17T07:44:04.928Z,22.77
2019-05-17T07:46:52.680Z,26.63
2019-05-17T07:49:40.924Z,26.03
2019-05-17T07:52:29.959Z,27.20
2019-05-17T07:55:16.124Z,24.87
2019-05-17T07:58:03.802Z,28.07
2019-05-17T08:00:51.684Z,25.63
2019-05-17T08:03:40.530Z,26.37
2019-05-17T08:06:30.359Z,24.63
2019-05-17T08:09:15.472Z,27.23
2019-05-17T08:12:03.372Z,25.73
2019-05-17T08:14:51.242Z,27.67
2019-05-17T08:17:39.657Z,27.10
2019-05-17T08:20:29.824Z,28.23
2019-05-17T08:23:15.047Z,28.33
2019-05-17T08:26:02.579Z,25.87
2019-05-17T08:28:50.880Z,27.77
2019-05-17T08:31:40.424Z,26.23
2019-05-17T08:34:28.927Z,26.33
2019-05-17T08:37:14.590Z,27.20
2019-05-17T08:40:02.786Z,26.13
2019-05-17T08:42:50.730Z,27.30
2019-05-17T08:45:40.770Z,28.07
2019-05-17T08:48:26.012Z,29.50
2019-05-17T08:51:14.204Z,23.07
2019-05-17T08:54:01.928Z,23.67
2019-05-17T08:56:50.427Z,21.20
2019-05-17T08:59:40.201Z,24.23
2019-05-17T09:02:25.805Z,24.77
2019-05-17T09:05:13.640Z,23.37
2019-05-17T09:08:01.220Z,21.03
2019-05-17T09:10:50.477Z,20.90
2019-05-17T09:13:37.142Z,19.70
2019-05-17T09:16:25.588Z,20.17
2019-05-17T09:19:13.399Z,23.50
2019-05-17T09:22:01.234Z,30.73
2019-05-17T09:24:50.126Z,22.70
2019-05-17T09:27:39.649Z,24.53
2019-05-17T09:30:25.829Z,24.50
2019-05-17T09:33:13.329Z,24.67
2019-05-17T09:36:01.369Z,19.83
2019-05-17T09:38:49.511Z,18.90
2019-05-17T09:41:39.604Z,20.63
2019-05-17T09:44:25.002Z,23.07
2019-05-17T09:47:12.392Z,20.00
2019-05-17T09:50:00.820Z,23.43
2019-05-17T09:52:49.399Z,23.60
2019-05-17T09:55:36.512Z,23.43
2019-05-17T09:58:24.631Z,23.57
2019-05-17T10:01:13.092Z,22.33
2019-05-17T10:04:01.298Z,23.33
2019-05-17T10:06:51.306Z,22.20
2019-05-17T10:09:39.834Z,22.83
2019-05-17T10:12:25.134Z,22.97
2019-05-17T10:15:13.086Z,23.07
2019-05-17T10:18:00.843Z,22.30
2019-05-17T10:20:50.480Z,23.03
2019-05-17T10:23:36.486Z,30.57
2019-05-17T10:26:24.035Z,23.43
2019-05-17T10:29:12.382Z,20.97
2019-05-17T10:32:00.369Z,22.30
2019-05-17T10:34:49.533Z,21.40
2019-05-17T10:37:36.396Z,20.90
2019-05-17T10:40:24.677Z,20.60
2019-05-17T10:43:12.522Z,21.20
2019-05-17T10:46:00.603Z,20.53
2019-05-17T10:48:50.025Z,19.30
2019-05-17T10:51:36.569Z,18.87
2019-05-17T10:54:24.878Z,19.60
2019-05-17T10:57:12.576Z,19.73
2019-05-17T11:00:00.049Z,19.53
2019-05-17T11:02:50.343Z,17.33
2019-05-17T11:05:36.520Z,16.43
2019-05-17T11:08:24.623Z,23.50
2019-05-17T11:11:12.399Z,18.47
2019-05-17T11:14:00.012Z,16.77
2019-05-17T11:16:48.013Z,18.10
2019-05-17T11:19:36.390Z,16.80
2019-05-17T11:22:24.670Z,17.77
2019-05-17T11:25:12.192Z,18.13
2019-05-17T11:28:00.306Z,17.23
2019-05-17T11:30:47.993Z,17.53
2019-05-17T11:33:36.192Z,19.37
2019-05-17T11:36:23.652Z,19.00
2019-05-17T11:39:11.471Z,17.63
2019-05-17T11:41:59.343Z,17.77
2019-05-17T11:44:47.639Z,16.77
2019-05-17T11:47:35.577Z,16.77
2019-05-17T11:50:23.347Z,18.53
2019-05-17T11:53:11.078Z,18.53
2019-05-17T11:55:58.844Z,17.60
2019-05-17T11:58:46.511Z,16.73
2019-05-17T12:01:33.988Z,16.63
2019-05-17T12:04:22.343Z,17.50
2019-05-17T12:07:09.805Z,16.93
2019-05-17T12:09:57.682Z,19.27
2019-05-17T12:12:45.482Z,17.87
2019-05-17T12:15:44.307Z,17.57
2019-05-17T12:18:20.813Z,16.20
2019-05-17T12:21:08.461Z,13.70
2019-05-17T12:23:56.208Z,16.17
2019-05-17T12:26:47.358Z,17.17
2019-05-17T12:29:31.934Z,15.43
2019-05-17T12:32:19.607Z,14.03
2019-05-17T12:35:07.381Z,13.78
2019-05-17T12:37:55.170Z,15.75
2019-05-17T12:40:42.737Z,14.28
2019-05-17T12:43:30.323Z,13.88
2019-05-17T12:46:18.589Z,12.40
2019-05-17T12:49:06.014Z,12.10
2019-05-17T12:51:54.223Z,11.28
2019-05-17T12:54:42.358Z,12.73
2019-05-17T12:57:30.684Z,16.05
2019-05-17T13:00:18.574Z,13.53
2019-05-17T13:03:06.462Z,13.77
2019-05-17T13:05:53.947Z,14.07
2019-05-17T13:08:42.034Z,10.93
2019-05-17T13:11:30.101Z,11.27
2019-05-17T13:14:18.352Z,18.60
2019-05-17T13:17:06.385Z,13.87
2019-05-17T13:19:54.278Z,11.47
2019-05-17T13:22:42.166Z,11.73
2019-05-17T13:25:30.432Z,13.60
2019-05-17T13:28:18.358Z,12.30
2019-05-17T13:31:06.095Z,11.97
2019-05-17T13:33:53.890Z,14.70
2019-05-17T13:36:41.644Z,14.33
2019-05-17T13:39:29.890Z,14.27
2019-05-17T13:42:18.342Z,12.23
2019-05-17T13:45:06.529Z,13.93
2019-05-17T13:47:54.336Z,13.47
2019-05-17T13:50:42.085Z,13.93
2019-05-17T13:53:30.529Z,16.13
2019-05-17T13:56:18.035Z,14.13
2019-05-17T13:59:05.890Z,14.33
2019-05-17T14:01:53.625Z,15.10
2019-05-17T14:04:41.620Z,15.77
2019-05-17T14:07:29.878Z,17.83
2019-05-17T14:10:27.058Z,13.80
2019-05-17T14:13:05.776Z,16.10
2019-05-17T14:15:53.537Z,14.13
2019-05-17T14:18:41.135Z,12.47
2019-05-17T14:21:29.006Z,15.90
2019-05-17T14:24:17.017Z,12.73
2019-05-17T14:27:04.940Z,14.50
2019-05-17T14:29:53.155Z,13.43
2019-05-17T14:32:40.735Z,14.93
2019-05-17T14:35:28.063Z,17.67
2019-05-17T14:38:16.536Z,20.03
2019-05-17T14:41:07.230Z,13.23
2019-05-17T14:43:52.050Z,15.43
2019-05-17T14:46:39.833Z,13.67
2019-05-17T14:49:27.600Z,13.07
2019-05-17T14:52:15.068Z,12.03
2019-05-17T14:55:03.258Z,11.07
2019-05-17T14:57:51.607Z,10.57
2019-05-17T15:00:39.798Z,11.77
2019-05-17T15:03:27.523Z,10.53
2019-05-17T15:06:15.140Z,10.63
2019-05-17T15:09:03.944Z,12.50
2019-05-17T15:11:51.554Z,11.40
2019-05-17T15:14:39.055Z,9.43
2019-05-17T15:17:26.908Z,10.73
2019-05-17T15:20:14.856Z,9.87
2019-05-17T15:23:02.420Z,10.60
2019-05-17T15:25:49.914Z,9.07
2019-05-17T15:28:37.436Z,8.50
2019-05-17T15:31:25.127Z,10.20
2019-05-17T15:34:13.010Z,8.33
2019-05-17T15:37:00.493Z,7.53
2019-05-17T15:39:48.047Z,8.27
2019-05-17T15:42:44.030Z,8.80
2019-05-17T15:45:23.327Z,9.03
2019-05-17T15:48:11.305Z,8.27
2019-05-17T15:50:59.201Z,9.37
2019-05-17T15:53:46.923Z,9.70
2019-05-17T15:56:34.728Z,9.40
2019-05-17T15:59:23.006Z,7.60
2019-05-17T16:02:10.865Z,7.80
2019-05-17T16:05:01.692Z,8.37
2019-05-17T16:07:49.651Z,9.13
2019-05-17T16:10:37.812Z,8.80
2019-05-17T16:13:25.698Z,10.03
2019-05-17T16:16:13.125Z,8.50
2019-05-17T16:19:00.641Z,10.23
2019-05-17T16:21:48.276Z,10.30
2019-05-17T16:24:36.196Z,9.43
2019-05-17T16:27:24.594Z,9.57
2019-05-17T16:30:12.677Z,9.83
2019-05-17T16:33:00.875Z,8.43
2019-05-17T16:35:48.868Z,9.50
2019-05-17T16:38:36.990Z,8.80
2019-05-17T16:41:24.562Z,11.63
2019-05-17T16:44:14.563Z,9.07
2019-05-17T16:46:59.737Z,8.93
2019-05-17T16:49:47.469Z,11.00
2019-05-17T16:52:35.129Z,15.10
2019-05-17T16:55:25.943Z,10.00
2019-05-17T16:58:10.540Z,8.50
2019-05-17T17:00:58.490Z,8.57
2019-05-17T17:03:46.081Z,10.00
2019-05-17T17:06:34.329Z,10.43
2019-05-17T17:09:21.775Z,10.30
2019-05-17T17:12:10.103Z,10.17
2019-05-17T17:14:57.657Z,9.87
2019-05-17T17:17:45.267Z,9.97
2019-05-17T17:20:32.998Z,10.20
2019-05-17T17:23:20.629Z,10.10
2019-05-17T17:26:11.203Z,12.27
2019-05-17T17:28:59.239Z,11.17
2019-05-17T17:31:47.130Z,11.40
2019-05-17T17:34:35.063Z,10.70
2019-05-17T17:37:22.861Z,12.50
2019-05-17T17:40:11.043Z,11.37
2019-05-17T17:42:58.779Z,18.30
2019-05-17T17:45:46.491Z,14.43
2019-05-17T17:48:33.931Z,13.07
2019-05-17T17:51:22.179Z,10.70
2019-05-17T17:54:10.018Z,11.07
2019-05-17T17:56:57.724Z,11.40
2019-05-17T17:59:45.377Z,9.00
2019-05-17T18:02:33.200Z,10.27
2019-05-17T18:05:20.788Z,10.73
2019-05-17T18:08:09.130Z,12.43
2019-05-17T18:10:57.032Z,11.43
2019-05-17T18:13:44.736Z,11.23
2019-05-17T18:16:32.393Z,11.93
2019-05-17T18:19:20.032Z,12.73
2019-05-17T18:22:07.643Z,12.60
2019-05-17T18:24:55.494Z,12.03
2019-05-17T18:27:43.509Z,13.00
2019-05-17T18:30:31.151Z,11.30
2019-05-17T18:33:18.776Z,24.13
2019-05-17T18:36:06.439Z,26.50
2019-05-17T18:38:54.128Z,19.90
2019-05-17T18:41:41.665Z,17.27
2019-05-17T18:44:29.568Z,15.43
2019-05-17T18:47:17.136Z,15.67
2019-05-17T18:50:04.995Z,15.40
2019-05-17T18:52:52.735Z,15.20
2019-05-17T18:55:40.472Z,15.27
2019-05-17T18:58:28.819Z,14.13
2019-05-17T19:01:16.337Z,14.83
2019-05-17T19:04:04.455Z,14.90
2019-05-17T19:06:52.323Z,15.37
2019-05-17T19:09:39.947Z,14.40
2019-05-17T19:12:27.916Z,16.13
2019-05-17T19:15:15.610Z,15.10
2019-05-17T19:18:03.060Z,17.10
2019-05-17T19:20:50.996Z,17.03
2019-05-17T19:23:38.914Z,17.00
2019-05-17T19:26:26.956Z,18.13
2019-05-17T19:29:14.756Z,15.17
2019-05-17T19:32:02.522Z,18.43
2019-05-17T19:34:50.060Z,18.03
2019-05-17T19:37:37.566Z,18.00
2019-05-17T19:40:26.031Z,20.37
2019-05-17T19:43:14.125Z,23.20
2019-05-17T19:46:01.691Z,26.30
2019-05-17T19:48:49.445Z,22.93
2019-05-17T19:51:37.652Z,23.30
2019-05-17T19:54:25.870Z,26.73
2019-05-17T19:57:13.606Z,24.70
2019-05-17T20:00:01.168Z,33.83
2019-05-17T20:02:48.741Z,57.27
2019-05-17T20:05:36.766Z,32.03
2019-05-17T20:08:24.303Z,26.03
2019-05-17T20:11:11.943Z,25.80
2019-05-17T20:13:59.475Z,23.53
2019-05-17T20:16:47.169Z,24.70
2019-05-17T20:19:34.982Z,22.27
2019-05-17T20:22:22.592Z,22.53
2019-05-17T20:25:10.249Z,22.00
2019-05-17T20:27:58.511Z,21.47
2019-05-17T20:30:46.255Z,25.63
2019-05-17T20:33:34.030Z,22.83
2019-05-17T20:36:22.206Z,24.13
2019-05-17T20:39:10.487Z,22.93
2019-05-17T20:41:58.432Z,24.13
2019-05-17T20:44:46.572Z,24.07
2019-05-17T20:47:34.381Z,22.10
2019-05-17T20:50:22.454Z,23.73
2019-05-17T20:53:18.339Z,22.70
2019-05-17T20:55:57.791Z,24.50
2019-05-17T20:58:45.933Z,22.93
2019-05-17T21:01:33.686Z,26.83
2019-05-17T21:04:21.300Z,27.13
2019-05-17T21:07:09.564Z,27.47
2019-05-17T21:09:57.689Z,28.67
2019-05-17T21:12:45.421Z,27.80
2019-05-17T21:15:45.743Z,24.53
2019-05-17T21:18:20.474Z,24.37
2019-05-17T21:21:08.075Z,25.37
2019-05-17T21:23:56.195Z,26.43
2019-05-17T21:26:43.731Z,25.57
2019-05-17T21:29:31.393Z,68.47
2019-05-17T21:32:19.599Z,51.30
2019-05-17T21:35:07.185Z,32.37
2019-05-17T21:37:55.019Z,28.63
2019-05-17T21:40:42.535Z,26.80
2019-05-17T21:43:30.278Z,25.83
2019-05-17T21:46:18.415Z,25.97
2019-05-17T21:49:05.963Z,23.97
2019-05-17T21:51:54.198Z,25.37
2019-05-17T21:54:42.099Z,24.97
2019-05-17T21:57:29.684Z,26.30
2019-05-17T22:00:56.585Z,29.50
2019-05-17T22:03:44.453Z,29.27
2019-05-17T22:06:32.231Z,26.90
2019-05-17T22:09:20.113Z,62.93
2019-05-17T22:12:09.020Z,70.00
2019-05-17T22:14:56.896Z,36.77
2019-05-17T22:17:44.378Z,31.70
2019-05-17T22:20:32.691Z,32.33
2019-05-17T22:23:20.580Z,29.20
2019-05-17T22:26:08.559Z,30.63
2019-05-17T22:28:56.501Z,30.40
2019-05-17T22:31:44.305Z,30.27
2019-05-17T22:34:31.912Z,27.60
2019-05-17T22:37:19.587Z,34.40
2019-05-17T22:40:07.733Z,49.00
2019-05-17T22:42:55.588Z,33.47
2019-05-17T22:45:44.242Z,30.90
2019-05-17T22:48:31.625Z,29.17
2019-05-17T22:51:19.183Z,31.53
2019-05-17T22:54:07.296Z,31.93
2019-05-17T22:56:55.030Z,30.87
2019-05-17T22:59:42.555Z,31.03
2019-05-17T23:02:30.164Z,30.13
2019-05-17T23:05:25.670Z,30.90
2019-05-17T23:08:05.706Z,30.03
2019-05-17T23:10:53.104Z,30.57
2019-05-17T23:13:40.677Z,31.83
2019-05-17T23:16:28.579Z,35.47
2019-05-17T23:19:16.165Z,35.60
2019-05-17T23:22:04.287Z,34.50
2019-05-17T23:24:52.139Z,30.47
2019-05-17T23:27:40.556Z,33.50
2019-05-17T23:30:28.682Z,31.50
2019-05-17T23:33:16.518Z,30.27
2019-05-17T23:36:04.422Z,34.80
2019-05-17T23:38:52.201Z,33.07
2019-05-17T23:41:39.605Z,32.20
2019-05-17T23:44:27.363Z,39.20
2019-05-17T23:47:14.895Z,35.77
2019-05-17T23:50:02.678Z,30.83
2019-05-17T23:52:50.136Z,30.50
2019-05-17T23:55:37.732Z,36.80
2019-05-17T23:58:25.317Z,34.27
